Time;durP1;ratioP1;P1;durP2;ratioP2;P2;SDS_P1;SDS_P2;PMS_P1;PMS_P2;Temp;Humidity;BMP_temperature;BMP_pressure;BME280_temperature;BME280_humidity;BME280_pressure;Samples;Min_cycle;Max_cycle;Signal;HPM_P1;HPM_P2
2022/05/12 00:00:00;;;;;;;3.42;2.45;;;21.30;88.80;;;;;;7371631;19;20356;-73
2022/05/12 00:02:26;;;;;;;2.50;2.30;;;21.30;88.20;;;;;;7373294;19;21089;-73
2022/05/12 00:04:52;;;;;;;2.77;2.43;;;21.30;88.00;;;;;;7373171;19;20332;-73
2022/05/12 00:07:17;;;;;;;2.53;2.35;;;21.30;88.20;;;;;;7375877;19;20352;-73
2022/05/12 00:09:43;;;;;;;5.47;2.40;;;21.30;87.50;;;;;;7336679;19;20329;-73
2022/05/12 00:12:08;;;;;;;3.17;2.60;;;21.40;87.20;;;;;;7370861;19;20389;-73
2022/05/12 00:14:34;;;;;;;2.78;2.58;;;21.50;86.50;;;;;;7373671;19;20329;-73
2022/05/12 00:17:00;;;;;;;3.20;2.65;;;21.50;85.50;;;;;;7370745;19;20336;-73
2022/05/12 00:19:27;;;;;;;2.42;2.22;;;21.60;84.80;;;;;;7373011;19;20428;-73
2022/05/12 00:21:53;;;;;;;2.47;2.28;;;21.70;84.80;;;;;;7370316;19;20348;-73
2022/05/12 00:24:19;;;;;;;3.28;2.60;;;21.70;84.70;;;;;;7363924;19;20390;-73
2022/05/12 00:26:44;;;;;;;3.50;2.50;;;21.70;84.40;;;;;;7372506;19;20312;-73
2022/05/12 00:29:10;;;;;;;2.80;2.40;;;21.60;84.30;;;;;;7373086;19;20328;-73
2022/05/12 00:31:37;;;;;;;3.23;2.53;;;21.70;84.10;;;;;;7361490;19;21057;-73
2022/05/12 00:34:03;;;;;;;3.88;2.35;;;21.70;84.10;;;;;;7373056;19;20345;-72
2022/05/12 00:36:29;;;;;;;2.85;2.15;;;21.70;83.70;;;;;;7373353;19;20341;-73
2022/05/12 00:38:55;;;;;;;2.67;2.33;;;21.70;83.90;;;;;;7370551;19;20362;-73
2022/05/12 00:41:20;;;;;;;2.53;2.27;;;21.70;83.60;;;;;;7365532;19;20906;-73
2022/05/12 00:43:51;;;;;;;2.40;2.20;;;21.70;83.30;;;;;;7370332;19;20341;-74
2022/05/12 00:46:19;;;;;;;2.25;2.15;;;21.70;83.10;;;;;;7370241;19;20365;-73
2022/05/12 00:48:44;;;;;;;3.00;2.40;;;21.70;83.10;;;;;;7372669;19;20304;-74
2022/05/12 00:51:12;;;;;;;4.75;2.58;;;21.60;82.90;;;;;;7368245;19;20367;-73
2022/05/12 00:53:37;;;;;;;3.92;2.35;;;21.60;83.50;;;;;;7372572;19;20854;-73
2022/05/12 00:56:04;;;;;;;2.65;2.28;;;21.50;84.10;;;;;;7373184;19;20332;-73
2022/05/12 00:58:30;;;;;;;2.60;2.40;;;21.40;84.00;;;;;;7373930;19;21192;-72
2022/05/12 01:00:55;;;;;;;2.58;2.38;;;21.30;84.60;;;;;;7370714;19;20368;-73
2022/05/12 01:03:23;;;;;;;2.60;2.40;;;21.20;84.80;;;;;;7371481;19;21719;-73
2022/05/12 01:05:49;;;;;;;2.40;2.20;;;21.10;85.20;;;;;;7370126;19;20957;-73
2022/05/12 01:08:16;;;;;;;3.50;2.55;;;21.10;85.30;;;;;;7370257;19;20349;-73
2022/05/12 01:10:43;;;;;;;3.00;2.25;;;21.00;85.30;;;;;;7367985;19;20351;-72
2022/05/12 01:13:09;;;;;;;2.55;2.33;;;20.90;85.80;;;;;;7370004;19;20716;-73
2022/05/12 01:15:34;;;;;;;2.27;2.07;;;20.80;86.60;;;;;;7371963;19;20804;-73
2022/05/12 01:18:05;;;;;;;2.50;2.30;;;20.70;87.00;;;;;;7369588;19;20359;-73
2022/05/12 01:20:30;;;;;;;2.53;2.17;;;20.50;87.70;;;;;;7369592;19;20902;-73
2022/05/12 01:22:59;;;;;;;2.17;2.05;;;20.50;88.10;;;;;;7364909;19;20376;-73
2022/05/12 01:25:26;;;;;;;5.00;2.50;;;20.40;88.30;;;;;;7369956;19;20545;-72
2022/05/12 01:27:51;;;;;;;2.53;2.20;;;20.30;88.00;;;;;;7367891;19;20403;-73
2022/05/12 01:30:19;;;;;;;2.50;2.30;;;20.30;88.80;;;;;;7375391;19;20730;-73
2022/05/12 01:32:46;;;;;;;2.55;2.28;;;20.20;88.50;;;;;;7375035;19;20441;-73
2022/05/12 01:35:12;;;;;;;2.70;2.35;;;20.20;88.70;;;;;;7378458;19;20879;-73
2022/05/12 01:37:39;;;;;;;5.60;2.65;;;20.20;88.80;;;;;;7377573;19;20328;-73
2022/05/12 01:40:05;;;;;;;3.28;2.20;;;20.10;88.70;;;;;;7376933;19;20913;-72
2022/05/12 01:42:31;;;;;;;2.60;2.40;;;20.00;89.00;;;;;;7376382;19;20340;-73
2022/05/12 01:44:57;;;;;;;2.23;2.10;;;19.90;90.00;;;;;;7375211;19;20876;-72
2022/05/12 01:47:22;;;;;;;4.90;2.13;;;19.90;90.00;;;;;;7376214;19;20360;-72
2022/05/12 01:49:48;;;;;;;2.30;2.10;;;19.80;90.40;;;;;;7373051;19;20914;-72
2022/05/12 01:52:13;;;;;;;2.22;2.05;;;19.60;90.60;;;;;;7376894;19;20336;-72
2022/05/12 01:54:39;;;;;;;2.37;2.17;;;19.50;90.80;;;;;;7376869;19;20344;-73
2022/05/12 01:57:05;;;;;;;2.58;2.38;;;19.50;90.60;;;;;;7376755;19;20367;-73
2022/05/12 01:59:30;;;;;;;3.50;2.20;;;19.40;91.00;;;;;;7374595;19;20387;-73
2022/05/12 02:01:56;;;;;;;2.57;2.20;;;19.30;90.90;;;;;;7371930;19;20348;-73
2022/05/12 02:04:21;;;;;;;3.00;2.22;;;19.30;90.90;;;;;;7378682;19;20320;-72
2022/05/12 02:06:47;;;;;;;2.90;2.00;;;19.20;90.60;;;;;;7380390;19;20343;-73
2022/05/12 02:09:13;;;;;;;2.07;1.87;;;19.20;91.10;;;;;;7374780;19;20416;-73
2022/05/12 02:11:38;;;;;;;2.43;2.03;;;19.20;91.20;;;;;;7378316;19;20348;-72
2022/05/12 02:14:04;;;;;;;2.40;2.13;;;19.10;91.40;;;;;;7377708;19;20351;-73
2022/05/12 02:16:30;;;;;;;2.90;2.30;;;19.00;91.80;;;;;;7377758;19;20340;-72
2022/05/12 02:18:56;;;;;;;3.47;2.40;;;18.90;91.90;;;;;;7373941;19;20361;-73
2022/05/12 02:21:22;;;;;;;2.60;2.40;;;18.90;91.70;;;;;;7375779;19;20879;-72
2022/05/12 02:23:47;;;;;;;2.50;2.30;;;18.70;92.20;;;;;;7374759;19;20328;-72
2022/05/12 02:26:13;;;;;;;2.38;2.17;;;18.60;92.40;;;;;;7377554;19;20424;-73
2022/05/12 02:28:38;;;;;;;2.42;2.22;;;18.60;92.40;;;;;;7373496;19;20333;-72
2022/05/12 02:31:04;;;;;;;2.43;2.10;;;18.50;92.60;;;;;;7372883;19;20392;-73
2022/05/12 02:33:30;;;;;;;1.80;1.70;;;18.50;92.80;;;;;;7376642;19;21061;-72
2022/05/12 02:35:56;;;;;;;2.85;2.60;;;18.50;92.70;;;;;;7377368;19;20424;-72
2022/05/12 02:38:21;;;;;;;4.72;2.35;;;18.50;93.00;;;;;;7373919;19;20447;-73
2022/05/12 02:40:47;;;;;;;2.27;2.07;;;18.40;93.50;;;;;;7368883;19;20350;-72
2022/05/12 02:43:24;;;;;;;4.35;3.70;;;18.30;93.20;;;;;;7375438;19;20377;-73
2022/05/12 02:45:58;;;;;;;2.88;2.67;;;18.40;93.10;;;;;;7268860;19;2004716;-72
2022/05/12 02:48:26;;;;;;;2.22;2.10;;;18.30;93.20;;;;;;7367538;19;20325;-72
2022/05/12 02:50:52;;;;;;;3.00;2.55;;;18.30;93.10;;;;;;7358868;19;20343;-72
2022/05/12 02:53:17;;;;;;;3.00;2.70;;;18.30;93.40;;;;;;7361014;19;20337;-73
2022/05/12 02:55:43;;;;;;;4.82;2.40;;;18.40;93.80;;;;;;7371925;19;20398;-73
2022/05/12 02:58:08;;;;;;;2.50;2.30;;;18.50;93.60;;;;;;7373270;19;20877;-72
2022/05/12 03:00:34;;;;;;;2.60;2.40;;;18.50;93.50;;;;;;7372203;19;20391;-72
2022/05/12 03:03:00;;;;;;;4.15;2.55;;;18.60;93.10;;;;;;7371305;19;20444;-73
2022/05/12 03:05:26;;;;;;;2.83;2.43;;;18.60;93.30;;;;;;7370627;19;20331;-73
2022/05/12 03:07:52;;;;;;;2.92;2.72;;;18.70;93.10;;;;;;7373152;19;20348;-72
2022/05/12 03:10:18;;;;;;;2.47;2.28;;;18.70;93.00;;;;;;7374617;19;20435;-72
2022/05/12 03:12:43;;;;;;;2.60;2.40;;;18.70;92.70;;;;;;7351583;19;20913;-72
2022/05/12 03:15:10;;;;;;;5.07;2.70;;;18.70;92.90;;;;;;7367687;19;20327;-72
2022/05/12 03:17:35;;;;;;;3.40;2.40;;;18.70;92.90;;;;;;7375474;19;20688;-73
2022/05/12 03:20:02;;;;;;;4.00;2.80;;;18.60;93.00;;;;;;7375611;19;20348;-72
2022/05/12 03:22:28;;;;;;;4.70;2.63;;;18.70;92.80;;;;;;7373388;19;20854;-73
2022/05/12 03:24:54;;;;;;;2.63;2.43;;;18.60;92.90;;;;;;7375357;19;20329;-72
2022/05/12 03:27:19;;;;;;;2.78;2.40;;;18.70;92.90;;;;;;7374470;19;20328;-73
2022/05/12 03:29:45;;;;;;;3.37;2.50;;;18.80;92.50;;;;;;7377073;19;20358;-73
2022/05/12 03:32:12;;;;;;;3.92;2.50;;;18.80;92.70;;;;;;7371374;19;20373;-72
2022/05/12 03:34:41;;;;;;;2.87;2.57;;;18.80;92.50;;;;;;7374996;19;20377;-72
2022/05/12 03:37:07;;;;;;;3.15;2.70;;;18.80;92.60;;;;;;7374953;19;20345;-73
2022/05/12 03:39:34;;;;;;;3.10;2.60;;;18.80;92.90;;;;;;7374872;19;20321;-73
2022/05/12 03:42:00;;;;;;;2.80;2.60;;;18.70;93.10;;;;;;7372099;19;20349;-73
2022/05/12 03:47:12;;;;;;;3.00;2.70;;;18.50;93.70;;;;;;7376072;19;20429;-73
2022/05/12 03:49:38;;;;;;;5.20;3.22;;;18.50;94.00;;;;;;7377124;19;20709;-72
2022/05/12 03:52:04;;;;;;;3.03;2.78;;;18.50;94.30;;;;;;7371072;19;20891;-72
2022/05/12 03:54:30;;;;;;;3.13;2.90;;;18.40;94.50;;;;;;7373531;19;20451;-73
2022/05/12 03:56:55;;;;;;;3.65;3.10;;;18.40;94.90;;;;;;7373852;19;20423;-73
2022/05/12 03:59:21;;;;;;;3.47;3.17;;;18.30;95.20;;;;;;7377128;19;20312;-73
2022/05/12 04:01:46;;;;;;;4.20;3.38;;;18.20;95.80;;;;;;7369803;19;20451;-73
2022/05/12 04:04:12;;;;;;;3.53;3.20;;;18.10;96.90;;;;;;7373863;19;20336;-73
2022/05/12 04:06:38;;;;;;;3.80;3.15;;;18.10;97.70;;;;;;7372324;19;20359;-72
2022/05/12 04:09:04;;;;;;;5.03;3.13;;;18.10;98.40;;;;;;7372250;19;20706;-73
2022/05/12 04:11:30;;;;;;;3.97;2.92;;;18.00;99.00;;;;;;7369774;19;20356;-73
2022/05/12 04:13:56;;;;;;;4.82;2.92;;;18.00;99.80;;;;;;7371430;19;20338;-73
2022/05/12 04:16:22;;;;;;;3.67;3.20;;;17.90;99.90;;;;;;7351297;19;20945;-73
2022/05/12 04:18:48;;;;;;;2.85;2.63;;;17.90;99.90;;;;;;7373420;19;21028;-72
2022/05/12 04:21:16;;;;;;;3.20;2.90;;;17.90;99.90;;;;;;7368834;19;20353;-73
2022/05/12 04:23:43;;;;;;;3.75;2.83;;;17.90;99.90;;;;;;7369357;19;20352;-73
2022/05/12 04:26:09;;;;;;;3.83;3.10;;;17.90;99.90;;;;;;7372494;19;20344;-72
2022/05/12 04:28:35;;;;;;;3.05;2.75;;;17.90;99.90;;;;;;7373993;19;20353;-73
2022/05/12 04:31:01;;;;;;;3.10;2.50;;;17.90;99.90;;;;;;7376423;19;20416;-73
2022/05/12 04:36:10;;;;;;;4.70;2.63;;;17.90;99.90;;;;;;7271971;19;2004886;-72
2022/05/12 04:38:36;;;;;;;2.70;2.50;;;17.90;99.90;;;;;;7375324;19;22391;-72
2022/05/12 04:41:01;;;;;;;10.97;3.13;;;17.80;99.90;;;;;;7373767;19;20356;-72
2022/05/12 04:43:27;;;;;;;3.27;2.40;;;17.90;99.90;;;;;;7370723;19;20683;-73
2022/05/12 04:45:53;;;;;;;5.20;2.40;;;17.90;99.90;;;;;;7371648;19;20344;-72
2022/05/12 04:48:18;;;;;;;4.83;2.23;;;17.90;99.90;;;;;;7374825;19;20324;-72
2022/05/12 04:50:44;;;;;;;2.20;2.00;;;17.90;99.90;;;;;;7375721;19;20329;-72
2022/05/12 04:53:10;;;;;;;2.42;2.00;;;17.90;99.90;;;;;;7368309;19;20355;-72
2022/05/12 04:55:35;;;;;;;2.17;1.70;;;17.90;99.90;;;;;;7373562;19;20321;-73
2022/05/12 04:58:01;;;;;;;4.32;1.90;;;17.90;99.90;;;;;;7373225;19;20329;-72
2022/05/12 05:00:31;;;;;;;3.47;1.63;;;17.80;99.90;;;;;;7368717;19;20731;-73
2022/05/12 05:02:56;;;;;;;1.60;1.50;;;17.80;99.90;;;;;;7368190;19;20345;-73
2022/05/12 05:05:22;;;;;;;2.30;1.70;;;17.80;99.90;;;;;;7376566;19;20422;-72
2022/05/12 05:07:48;;;;;;;1.77;1.60;;;17.80;99.90;;;;;;7353859;19;20851;-72
2022/05/12 05:10:13;;;;;;;5.25;1.73;;;17.80;99.90;;;;;;7358204;19;20380;-72
2022/05/12 05:12:40;;;;;;;2.30;2.07;;;17.70;99.90;;;;;;7366045;19;20326;-72
2022/05/12 05:15:07;;;;;;;3.47;1.90;;;17.70;99.90;;;;;;7372120;19;20863;-72
2022/05/12 05:17:35;;;;;;;1.77;1.45;;;17.60;99.90;;;;;;7372948;19;20316;-71
2022/05/12 05:20:03;;;;;;;1.98;1.67;;;17.70;99.90;;;;;;7377555;19;20364;-86
2022/05/12 05:22:30;;;;;;;1.50;1.40;;;17.70;99.90;;;;;;7390654;19;20341;-85
2022/05/12 05:24:56;;;;;;;3.25;1.42;;;17.80;99.90;;;;;;7390954;19;20378;-82
2022/05/12 05:27:22;;;;;;;4.60;1.63;;;17.80;99.90;;;;;;7393537;19;20852;-80
2022/05/12 05:29:48;;;;;;;3.88;1.48;;;17.80;99.90;;;;;;7394229;19;20435;-82
2022/05/12 05:32:13;;;;;;;1.50;1.40;;;17.80;99.90;;;;;;7394664;19;20833;-81
2022/05/12 05:34:39;;;;;;;1.40;1.30;;;17.80;99.90;;;;;;7393407;19;20336;-78
2022/05/12 05:37:05;;;;;;;1.67;1.33;;;17.90;99.90;;;;;;7391446;19;20336;-78
2022/05/12 05:39:33;;;;;;;3.40;1.40;;;18.00;99.90;;;;;;7391715;19;21823;-79
2022/05/12 05:42:05;;;;;;;2.35;1.35;;;17.90;99.90;;;;;;7395107;19;20340;-78
2022/05/12 05:44:32;;;;;;;1.50;1.40;;;17.90;99.90;;;;;;7392270;19;20364;-78
2022/05/12 05:46:59;;;;;;;2.75;1.33;;;18.00;99.90;;;;;;7398096;19;20336;-80
2022/05/12 05:49:24;;;;;;;1.65;1.42;;;18.10;99.90;;;;;;7398127;19;20309;-81
2022/05/12 05:54:35;;;;;;;1.80;1.40;;;18.00;99.90;;;;;;7396970;19;20321;-86
2022/05/12 05:57:00;;;;;;;4.20;1.30;;;18.10;99.90;;;;;;7402945;19;20400;-83
2022/05/12 05:59:26;;;;;;;2.38;1.50;;;18.10;99.90;;;;;;7403641;19;20325;-81
2022/05/12 06:01:52;;;;;;;1.40;1.30;;;18.00;99.90;;;;;;7399926;19;20345;-86
2022/05/12 06:04:17;;;;;;;1.48;1.20;;;18.00;99.90;;;;;;7397922;19;20327;-79
2022/05/12 06:06:44;;;;;;;3.30;1.40;;;17.90;99.90;;;;;;7397893;19;20361;-82
2022/05/12 06:09:12;;;;;;;2.22;1.38;;;17.90;99.90;;;;;;7398725;19;20313;-81
2022/05/12 06:11:38;;;;;;;3.15;1.40;;;18.00;99.90;;;;;;7396487;19;20320;-78
2022/05/12 06:14:04;;;;;;;1.52;1.40;;;18.10;99.90;;;;;;7394065;19;20726;-81
2022/05/12 06:16:31;;;;;;;2.77;1.50;;;18.10;99.90;;;;;;7394294;19;20328;-81
2022/05/12 06:18:56;;;;;;;6.65;1.80;;;17.80;99.90;;;;;;7398662;19;20341;-79
2022/05/12 06:21:22;;;;;;;3.55;1.20;;;17.80;99.90;;;;;;7390915;19;20360;-84
2022/05/12 06:23:48;;;;;;;1.30;1.10;;;17.90;99.90;;;;;;7397670;19;20402;-83
2022/05/12 06:26:14;;;;;;;2.70;1.55;;;18.00;99.90;;;;;;7399381;19;20683;-82
2022/05/12 06:28:46;;;;;;;1.30;1.20;;;18.10;99.90;;;;;;7400482;19;20332;-88
2022/05/12 06:31:13;;;;;;;2.00;1.40;;;17.90;99.90;;;;;;7392138;19;20337;-79
2022/05/12 06:33:41;;;;;;;1.98;1.38;;;18.10;99.90;;;;;;7390368;19;21012;-85
2022/05/12 06:36:07;;;;;;;2.35;1.35;;;18.10;99.90;;;;;;7395230;19;20367;-80
2022/05/12 06:38:34;;;;;;;9.02;1.95;;;18.20;99.90;;;;;;7400323;19;20305;-82
2022/05/12 06:41:00;;;;;;;7.72;1.83;;;18.40;99.70;;;;;;7393304;19;20360;-83
2022/05/12 06:43:26;;;;;;;3.60;1.67;;;18.50;97.40;;;;;;7393049;19;20343;-82
2022/05/12 06:45:54;;;;;;;3.03;1.40;;;18.40;96.30;;;;;;7395245;19;20341;-84
2022/05/12 06:48:20;;;;;;;1.80;1.50;;;18.40;96.20;;;;;;7399522;19;21156;-84
2022/05/12 06:50:47;;;;;;;8.68;1.63;;;18.30;96.70;;;;;;7395959;19;20370;-81
2022/05/12 06:53:13;;;;;;;6.80;1.60;;;18.30;96.50;;;;;;7396920;19;20354;-83
2022/05/12 06:55:39;;;;;;;2.33;1.40;;;18.50;96.60;;;;;;7396104;19;20317;-81
2022/05/12 06:58:04;;;;;;;1.90;1.30;;;18.50;96.10;;;;;;7393533;19;20365;-83
2022/05/12 07:00:30;;;;;;;2.27;1.40;;;18.40;96.30;;;;;;7388748;19;20317;-83
2022/05/12 07:02:55;;;;;;;5.83;1.70;;;18.50;96.00;;;;;;7387978;19;20352;-82
2022/05/12 07:05:23;;;;;;;1.52;1.40;;;18.60;96.10;;;;;;7392790;19;20360;-83
2022/05/12 07:07:49;;;;;;;2.05;1.30;;;18.60;96.50;;;;;;7387110;19;20345;-83
2022/05/12 07:10:14;;;;;;;1.90;1.03;;;18.80;97.00;;;;;;7383837;19;20347;-80
2022/05/12 07:12:41;;;;;;;3.17;1.40;;;18.80;96.20;;;;;;7385120;19;21226;-80
2022/05/12 07:15:08;;;;;;;2.80;1.30;;;18.90;96.70;;;;;;7385596;19;20544;-82
2022/05/12 07:17:37;;;;;;;2.08;1.40;;;18.80;95.60;;;;;;7383822;19;21007;-77
2022/05/12 07:28:17;;;;;;;3.92;1.40;;;18.60;92.90;;;;;;7286472;19;2004492;-77
2022/05/12 07:31:01;;;;;;;3.07;1.60;;;18.70;92.40;;;;;;7382191;19;20320;-76
2022/05/12 07:33:31;;;;;;;1.55;1.10;;;18.80;91.60;;;;;;7379207;19;20312;-77
2022/05/12 07:35:57;;;;;;;3.45;1.25;;;18.70;91.20;;;;;;7386567;19;21221;-84
2022/05/12 07:38:23;;;;;;;10.63;1.65;;;19.00;92.80;;;;;;7382265;19;20321;-78
2022/05/12 07:40:49;;;;;;;1.80;1.20;;;19.10;92.90;;;;;;7385772;19;20300;-83
2022/05/12 07:43:14;;;;;;;3.70;1.87;;;18.90;91.50;;;;;;7389138;19;20693;-78
2022/05/12 07:45:40;;;;;;;2.90;1.02;;;18.90;92.40;;;;;;7385799;19;20329;-81
2022/05/12 07:48:06;;;;;;;5.47;1.50;;;18.80;91.50;;;;;;7382748;19;20331;-79
2022/05/12 07:50:32;;;;;;;6.45;1.50;;;18.80;91.50;;;;;;7379357;19;20324;-80
2022/05/12 07:52:58;;;;;;;1.27;1.10;;;18.70;90.90;;;;;;7377768;19;20336;-82
2022/05/12 07:55:24;;;;;;;1.00;0.90;;;18.70;91.70;;;;;;7382670;19;20699;-77
2022/05/12 07:57:50;;;;;;;1.10;1.00;;;18.70;91.40;;;;;;7382841;19;20341;-81
2022/05/12 08:00:16;;;;;;;5.78;1.17;;;18.60;92.30;;;;;;7382197;19;20907;-77
2022/05/12 08:02:41;;;;;;;3.80;1.17;;;18.60;92.00;;;;;;7378760;19;20354;-79
2022/05/12 08:05:07;;;;;;;3.53;1.10;;;19.10;93.00;;;;;;7384577;19;20309;-78
2022/05/12 08:07:33;;;;;;;7.00;1.47;;;19.10;91.20;;;;;;7387275;19;20313;-80
2022/05/12 08:10:01;;;;;;;2.88;1.65;;;18.90;91.30;;;;;;7387907;19;20337;-78
2022/05/12 08:12:27;;;;;;;3.70;1.10;;;18.60;91.10;;;;;;7384027;19;20321;-78
2022/05/12 08:14:53;;;;;;;2.78;0.98;;;18.70;91.60;;;;;;7389695;19;20929;-81
2022/05/12 08:17:18;;;;;;;2.80;1.00;;;19.10;91.80;;;;;;7385811;19;20334;-78
2022/05/12 08:19:44;;;;;;;3.40;1.10;;;19.20;91.50;;;;;;7383000;19;20304;-79
2022/05/12 08:22:10;;;;;;;1.90;1.17;;;19.10;90.60;;;;;;7380667;19;20769;-77
2022/05/12 08:24:35;;;;;;;1.30;0.90;;;18.80;90.20;;;;;;7380401;19;20413;-76
2022/05/12 08:27:01;;;;;;;1.20;0.93;;;19.10;90.10;;;;;;7384807;19;20308;-77
2022/05/12 08:29:27;;;;;;;1.08;0.88;;;19.10;90.70;;;;;;7381377;19;20337;-77
2022/05/12 08:31:52;;;;;;;1.80;1.30;;;19.10;90.50;;;;;;7378056;19;20355;-78
2022/05/12 08:34:18;;;;;;;0.90;0.90;;;19.20;90.70;;;;;;7382349;19;20347;-79
2022/05/12 08:36:44;;;;;;;1.00;0.90;;;19.00;90.30;;;;;;7383289;19;20316;-78
2022/05/12 08:39:09;;;;;;;6.75;2.15;;;18.80;90.70;;;;;;7392669;19;20757;-79
2022/05/12 08:42:03;;;;;;;9.85;2.22;;;19.40;91.50;;;;;;7395288;19;20325;-78
2022/05/12 08:44:29;;;;;;;1.20;0.98;;;19.60;90.30;;;;;;7295361;19;2004695;-75
2022/05/12 08:46:57;;;;;;;4.03;0.90;;;19.50;89.20;;;;;;7404650;19;20344;-85
2022/05/12 08:49:26;;;;;;;1.60;0.80;;;19.30;89.40;;;;;;7404028;19;20324;-80
2022/05/12 08:52:24;;;;;;;1.33;0.73;;;19.00;89.50;;;;;;7397086;19;20328;-78
2022/05/12 08:54:55;;;;;;;0.98;0.90;;;19.50;90.60;;;;;;7396362;19;20922;-82
2022/05/12 08:57:35;;;;;;;0.82;0.80;;;19.30;89.00;;;;;;7398711;19;20336;-80
2022/05/12 09:00:06;;;;;;;0.60;0.60;;;19.30;88.00;;;;;;7400700;19;20345;-79
2022/05/12 09:02:46;;;;;;;1.08;0.90;;;19.40;88.70;;;;;;7399724;19;20332;-78
2022/05/12 09:05:13;;;;;;;1.10;0.77;;;19.30;86.90;;;;;;7402797;19;20678;-78
2022/05/12 09:08:03;;;;;;;1.73;0.82;;;19.40;89.60;;;;;;7398423;19;20333;-82
2022/05/12 09:10:34;;;;;;;3.78;0.80;;;18.90;85.90;;;;;;7397722;19;20424;-82
2022/05/12 09:13:04;;;;;;;1.50;0.80;;;19.60;88.60;;;;;;7396599;19;20344;-80
2022/05/12 09:15:34;;;;;;;0.60;0.60;;;20.10;86.50;;;;;;7398380;19;20308;-78
2022/05/12 09:18:04;;;;;;;2.25;0.60;;;20.20;83.50;;;;;;7397941;19;20324;-78
2022/05/12 09:20:34;;;;;;;0.80;0.60;;;20.50;85.20;;;;;;7392711;19;20336;-79
2022/05/12 09:23:00;;;;;;;3.97;0.90;;;20.60;83.10;;;;;;7391942;19;20325;-76
2022/05/12 09:25:29;;;;;;;0.97;0.80;;;20.30;83.80;;;;;;7395886;19;20308;-76
2022/05/12 09:27:58;;;;;;;15.52;2.75;;;19.90;85.30;;;;;;7397818;19;20904;-80
2022/05/12 09:30:35;;;;;;;0.80;0.60;;;19.70;86.00;;;;;;7394176;19;20344;-78
2022/05/12 09:33:00;;;;;;;2.00;0.77;;;19.60;83.30;;;;;;7390252;19;20348;-79
2022/05/12 09:35:26;;;;;;;9.00;1.93;;;20.10;82.90;;;;;;7399328;19;20318;-78
2022/05/12 09:37:52;;;;;;;0.80;0.80;;;20.10;83.20;;;;;;7400191;19;21907;-77
2022/05/12 09:40:20;;;;;;;3.57;1.00;;;20.40;83.40;;;;;;7399696;19;20337;-79
2022/05/12 09:42:51;;;;;;;0.90;0.90;;;20.60;83.70;;;;;;7398813;19;20365;-80
2022/05/12 09:45:32;;;;;;;0.57;0.57;;;20.70;83.40;;;;;;7401202;19;20317;-82
2022/05/12 09:48:18;;;;;;;1.02;0.80;;;20.50;82.30;;;;;;7263582;19;2004695;-81
2022/05/12 09:50:44;;;;;;;0.90;0.80;;;20.80;81.80;;;;;;7293618;19;2004674;-81
2022/05/12 09:53:10;;;;;;;0.80;0.70;;;20.60;82.30;;;;;;7395632;19;20348;-83
2022/05/12 09:55:38;;;;;;;1.20;0.70;;;20.30;83.70;;;;;;7397568;19;20317;-82
2022/05/12 09:58:22;;;;;;;1.00;0.70;;;20.20;82.90;;;;;;7391818;19;20333;-78
2022/05/12 10:00:50;;;;;;;0.77;0.77;;;20.40;82.60;;;;;;7388463;19;21191;-80
2022/05/12 10:09:19;;;;;;;1.05;0.80;;;21.40;80.90;;;;;;7297307;19;2004282;-81
2022/05/12 10:11:52;;;;;;;0.60;0.60;;;21.90;78.40;;;;;;7394657;19;20320;-80
2022/05/12 10:14:51;;;;;;;0.90;0.90;;;22.10;78.70;;;;;;7393478;19;20317;-78
2022/05/12 10:17:41;;;;;;;0.80;0.80;;;21.60;77.40;;;;;;7393758;19;20301;-77
2022/05/12 10:20:26;;;;;;;1.05;0.75;;;21.40;76.30;;;;;;7292915;19;2004497;-80
2022/05/12 10:23:17;;;;;;;1.00;0.90;;;21.70;77.00;;;;;;7390563;19;20332;-80
2022/05/12 10:25:57;;;;;;;0.70;0.63;;;22.00;77.50;;;;;;7291948;19;2004364;-81
2022/05/12 10:28:43;;;;;;;0.70;0.63;;;21.70;74.40;;;;;;7296665;19;2004588;-78
2022/05/12 10:31:19;;;;;;;0.68;0.68;;;21.70;73.30;;;;;;7292612;19;2004500;-81
2022/05/12 10:33:57;;;;;;;1.05;0.70;;;21.80;74.30;;;;;;7395542;19;20324;-85
2022/05/12 10:36:50;;;;;;;0.70;0.70;;;22.20;73.00;;;;;;7397546;19;20341;-84
2022/05/12 10:39:38;;;;;;;1.85;0.80;;;22.40;74.30;;;;;;7401502;19;20357;-85
2022/05/12 10:42:17;;;;;;;1.57;1.00;;;22.90;74.60;;;;;;7295410;19;2004247;-81
2022/05/12 10:45:12;;;;;;;0.63;0.60;;;23.10;71.80;;;;;;7289814;19;2004576;-82
2022/05/12 10:48:06;;;;;;;2.60;0.93;;;23.00;71.10;;;;;;7293732;19;2004133;-81
2022/05/12 10:50:58;;;;;;;5.35;1.30;;;22.70;72.30;;;;;;7292406;19;2019056;-80
2022/05/12 10:53:49;;;;;;;4.40;0.83;;;22.50;73.30;;;;;;7393358;19;20329;-86
2022/05/12 10:56:30;;;;;;;3.63;0.80;;;23.00;73.90;;;;;;7291102;19;2004380;-81
2022/05/12 10:59:07;;;;;;;0.70;0.70;;;23.00;70.80;;;;;;7292072;19;2004876;-85
2022/05/12 11:01:35;;;;;;;1.80;0.80;;;22.80;70.00;;;;;;7391188;19;20325;-82
2022/05/12 11:04:05;;;;;;;0.70;0.70;;;23.40;69.80;;;;;;7395350;19;20388;-80
2022/05/12 11:06:33;;;;;;;0.90;0.80;;;24.00;72.20;;;;;;7393370;19;20320;-80
2022/05/12 11:09:04;;;;;;;3.00;0.90;;;23.70;68.20;;;;;;7392284;19;20466;-79
2022/05/12 11:11:39;;;;;;;0.90;0.80;;;23.10;67.80;;;;;;7388981;19;20785;-80
2022/05/12 11:14:09;;;;;;;1.70;0.70;;;23.20;69.80;;;;;;7389149;19;20304;-80
2022/05/12 11:16:41;;;;;;;3.20;1.00;;;23.50;69.30;;;;;;7367849;19;20340;-84
2022/05/12 11:19:17;;;;;;;0.70;0.70;;;23.50;66.60;;;;;;7389638;19;20340;-80
2022/05/12 11:22:13;;;;;;;2.33;0.90;;;23.90;67.60;;;;;;7386846;19;20345;-80
2022/05/12 11:24:55;;;;;;;0.70;0.60;;;23.90;67.70;;;;;;7288985;19;2004450;-81
2022/05/12 11:27:44;;;;;;;1.00;0.80;;;23.20;64.80;;;;;;7395515;19;20973;-81
2022/05/12 11:30:16;;;;;;;2.42;1.00;;;23.00;67.10;;;;;;7394677;19;20393;-81
2022/05/12 11:32:49;;;;;;;0.73;0.73;;;23.20;69.00;;;;;;7387147;19;20317;-85
2022/05/12 11:35:27;;;;;;;0.80;0.70;;;23.00;67.00;;;;;;7390575;19;20915;-78
2022/05/12 11:38:04;;;;;;;5.03;1.08;;;23.50;68.80;;;;;;7390970;19;20435;-84
2022/05/12 11:40:48;;;;;;;3.05;1.20;;;24.20;67.00;;;;;;7387777;19;20313;-84
2022/05/12 11:46:32;;;;;;;1.35;0.80;;;23.60;66.20;;;;;;7390910;19;20392;-80
2022/05/12 11:49:02;;;;;;;0.60;0.60;;;24.10;66.10;;;;;;7287062;19;2007452;-81
2022/05/12 11:51:48;;;;;;;0.65;0.57;;;24.20;69.80;;;;;;7386707;19;20352;-78
2022/05/12 11:54:26;;;;;;;0.75;0.75;;;25.00;67.80;;;;;;7385736;19;20332;-78
2022/05/12 11:56:55;;;;;;;0.97;0.77;;;25.00;68.80;;;;;;7386337;19;20337;-81
2022/05/12 11:59:25;;;;;;;0.60;0.60;;;25.40;65.20;;;;;;7387548;19;20320;-80
2022/05/12 12:01:56;;;;;;;2.40;0.63;;;25.60;66.40;;;;;;7379452;19;20337;-78
2022/05/12 12:04:49;;;;;;;0.50;0.50;;;25.70;63.50;;;;;;7382551;19;20320;-82
2022/05/12 12:07:16;;;;;;;0.70;0.70;;;25.60;63.10;;;;;;7280210;19;2004990;-81
2022/05/12 12:09:43;;;;;;;0.63;0.63;;;25.40;65.30;;;;;;7385573;19;20317;-79
2022/05/12 12:12:10;;;;;;;0.70;0.70;;;25.40;64.30;;;;;;7388558;19;20983;-82
2022/05/12 12:14:48;;;;;;;1.10;0.68;;;25.40;64.20;;;;;;7381885;19;20325;-78
2022/05/12 12:17:30;;;;;;;0.90;0.70;;;26.10;64.90;;;;;;7382651;19;20316;-78
2022/05/12 12:19:57;;;;;;;1.63;0.88;;;26.40;62.00;;;;;;7382077;19;20975;-76
2022/05/12 12:22:26;;;;;;;0.75;0.70;;;26.00;61.00;;;;;;7382173;19;20325;-78
2022/05/12 12:25:09;;;;;;;2.10;0.80;;;26.00;61.50;;;;;;7381775;19;20745;-80
2022/05/12 12:27:52;;;;;;;0.70;0.70;;;25.90;60.80;;;;;;7284973;19;2004715;-83
2022/05/12 12:30:30;;;;;;;1.10;0.70;;;24.50;59.90;;;;;;7290121;19;2004354;-83
2022/05/12 12:33:24;;;;;;;0.80;0.80;;;25.00;60.50;;;;;;7386101;19;20344;-79
2022/05/12 12:35:52;;;;;;;1.50;0.90;;;24.30;60.00;;;;;;7391320;19;20329;-78
2022/05/12 12:38:49;;;;;;;2.10;0.70;;;25.10;61.10;;;;;;7393727;19;20336;-80
2022/05/12 12:41:32;;;;;;;1.10;0.97;;;25.30;62.10;;;;;;7285056;19;2004418;-80
2022/05/12 12:44:09;;;;;;;3.60;0.60;;;24.70;60.00;;;;;;7284561;19;2019077;-78
2022/05/12 12:47:11;;;;;;;1.70;0.60;;;25.10;60.20;;;;;;7387248;19;20868;-85
2022/05/12 12:49:49;;;;;;;2.00;0.70;;;25.20;59.80;;;;;;7286107;19;2004682;-83
2022/05/12 12:52:16;;;;;;;16.47;2.00;;;24.90;58.90;;;;;;7282563;19;2004885;-80
2022/05/12 12:57:27;;;;;;;0.63;0.63;;;25.40;56.50;;;;;;7382672;19;20935;-78
2022/05/12 13:00:06;;;;;;;0.67;0.67;;;26.30;59.30;;;;;;7380422;19;20308;-77
2022/05/12 13:02:33;;;;;;;0.80;0.60;;;26.60;57.50;;;;;;7380474;19;20354;-82
2022/05/12 13:05:03;;;;;;;0.77;0.77;;;25.40;57.70;;;;;;7383074;19;20344;-79
2022/05/12 13:07:30;;;;;;;0.60;0.60;;;25.70;58.90;;;;;;7385373;19;20320;-81
2022/05/12 13:09:56;;;;;;;1.73;0.83;;;25.40;58.40;;;;;;7384220;19;20419;-83
2022/05/12 13:12:26;;;;;;;0.95;0.85;;;25.60;58.90;;;;;;7380398;19;21668;-77
2022/05/12 13:14:52;;;;;;;3.05;0.80;;;25.30;58.30;;;;;;7380030;19;20750;-77
2022/05/12 13:17:22;;;;;;;0.80;0.75;;;26.00;58.20;;;;;;7378580;19;20404;-79
2022/05/12 13:19:48;;;;;;;1.03;0.73;;;25.80;57.50;;;;;;7374988;19;20324;-77
2022/05/12 13:22:26;;;;;;;0.70;0.70;;;25.90;57.10;;;;;;7380587;19;20353;-81
2022/05/12 13:24:51;;;;;;;0.80;0.80;;;25.50;55.40;;;;;;7280412;19;2004594;-82